createdAt,value
2023-05-05T00:18:57.110Z,11.64
2023-05-05T00:49:00.265Z,10.46
2023-05-05T01:19:04.323Z,10.24
2023-05-05T01:49:07.503Z,10.09
2023-05-05T02:19:10.419Z,15.54
2023-05-05T02:49:14.177Z,10.47
2023-05-05T03:19:18.196Z,13.67
2023-05-05T03:49:21.420Z,9.56
2023-05-05T04:19:24.510Z,14.44
2023-05-05T04:49:27.804Z,9.90
2023-05-05T05:19:32.301Z,10.19
2023-05-05T05:49:35.082Z,10.95
2023-05-05T06:19:38.465Z,11.08
2023-05-05T06:49:41.363Z,12.08
2023-05-05T07:19:45.292Z,12.78
2023-05-05T07:49:48.101Z,13.14
2023-05-05T08:19:51.732Z,13.29
2023-05-05T08:49:54.698Z,13.77
2023-05-05T09:19:58.184Z,14.92
2023-05-05T09:50:01.523Z,16.11
2023-05-05T10:20:05.910Z,16.81
2023-05-05T10:50:09.802Z,18.22
2023-05-05T11:20:13.356Z,19.16
2023-05-05T11:50:16.803Z,19.86
2023-05-05T12:20:20.219Z,20.29
2023-05-05T12:50:23.230Z,20.57
2023-05-05T13:20:26.513Z,20.25
2023-05-05T13:50:29.406Z,19.49
2023-05-05T14:20:32.895Z,18.82
2023-05-05T14:50:35.758Z,18.30
2023-05-05T15:20:39.151Z,17.98
2023-05-05T15:50:42.066Z,17.23
2023-05-05T16:20:45.944Z,16.63
2023-05-05T16:50:49.042Z,15.53
2023-05-05T17:20:52.709Z,14.63
2023-05-05T17:50:55.582Z,14.00
2023-05-05T18:20:59.157Z,13.33
2023-05-05T18:51:02.029Z,12.67
2023-05-05T19:21:05.736Z,12.47
2023-05-05T19:51:08.740Z,12.19
2023-05-05T20:21:11.721Z,11.82
2023-05-05T20:51:14.734Z,11.46
2023-05-05T21:21:17.737Z,11.14
2023-05-05T21:51:21.266Z,10.84
2023-05-05T22:21:24.212Z,10.52
2023-05-05T22:51:27.692Z,9.97
2023-05-05T23:21:33.987Z,9.63
2023-05-05T23:51:39.801Z,9.59
